Terminal Aerodrome Forecast
Issued by NWS

Home | Current Version | Previous Version | Text Only | Print | Product List | Glossary On
Versions: 1 2 3 4 5 6 7 8 9 10 11 12 13 14
962
FTUS44 KTSA 102027 AAA
TAFXNA
TAF AMD
KXNA 102027Z 1020/1118 24015KT P6SM SKC
     FM110000 23005KT P6SM SKC
     FM110800 35005KT P6SM FEW250
     FM111200 03008KT P6SM SCT250=

USA.gov is the U.S. government's official web portal to all federal, state and local government web resources and services.